sensor_id;sensor_type;location;lat;lon;timestamp;pressure;altitude;pressure_sealevel;temperature;humidity
64844;BME280;51310;52.198;5.422;2024-01-10T00:00:08;103056.09;;;-5.51;67.56
64844;BME280;51310;52.198;5.422;2024-01-10T00:02:34;103060.97;;;-5.36;68.07
64844;BME280;51310;52.198;5.422;2024-01-10T00:05:00;103067.50;;;-5.47;68.28
64844;BME280;51310;52.198;5.422;2024-01-10T00:07:26;103058.44;;;-5.34;68.29
64844;BME280;51310;52.198;5.422;2024-01-10T00:09:53;103055.56;;;-5.42;68.52
64844;BME280;51310;52.198;5.422;2024-01-10T00:12:18;103057.47;;;-5.38;68.65
64844;BME280;51310;52.198;5.422;2024-01-10T00:14:44;103051.94;;;-5.46;68.89
64844;BME280;51310;52.198;5.422;2024-01-10T00:17:10;103060.63;;;-5.45;69.10
64844;BME280;51310;52.198;5.422;2024-01-10T00:19:37;103031.44;;;-5.59;69.44
64844;BME280;51310;52.198;5.422;2024-01-10T00:22:03;103049.22;;;-5.49;70.03
64844;BME280;51310;52.198;5.422;2024-01-10T00:24:29;103060.53;;;-5.48;70.11
64844;BME280;51310;52.198;5.422;2024-01-10T00:26:55;103049.69;;;-5.59;70.57
64844;BME280;51310;52.198;5.422;2024-01-10T00:29:21;103045.41;;;-5.57;70.75
64844;BME280;51310;52.198;5.422;2024-01-10T00:31:47;103044.53;;;-5.57;70.84
64844;BME280;51310;52.198;5.422;2024-01-10T00:34:13;103056.78;;;-5.55;70.90
64844;BME280;51310;52.198;5.422;2024-01-10T00:36:39;103025.34;;;-5.59;70.22
64844;BME280;51310;52.198;5.422;2024-01-10T00:39:05;103043.88;;;-5.52;70.24
64844;BME280;51310;52.198;5.422;2024-01-10T00:41:31;103042.69;;;-5.37;69.80
64844;BME280;51310;52.198;5.422;2024-01-10T00:43:57;103044.59;;;-5.33;69.59
64844;BME280;51310;52.198;5.422;2024-01-10T00:46:24;103036.59;;;-5.38;69.43
64844;BME280;51310;52.198;5.422;2024-01-10T00:48:50;103006.75;;;-5.46;69.39
64844;BME280;51310;52.198;5.422;2024-01-10T00:51:15;103028.78;;;-5.38;69.17
64844;BME280;51310;52.198;5.422;2024-01-10T00:53:41;103030.13;;;-5.48;69.51
64844;BME280;51310;52.198;5.422;2024-01-10T00:56:08;103025.88;;;-5.46;69.46
64844;BME280;51310;52.198;5.422;2024-01-10T00:58:35;103007.00;;;-5.62;69.51
64844;BME280;51310;52.198;5.422;2024-01-10T01:01:01;103029.84;;;-5.55;69.79
64844;BME280;51310;52.198;5.422;2024-01-10T01:03:27;103036.22;;;-5.47;69.84
64844;BME280;51310;52.198;5.422;2024-01-10T01:05:53;103038.09;;;-5.45;69.55
64844;BME280;51310;52.198;5.422;2024-01-10T01:08:19;103034.56;;;-5.45;69.33
64844;BME280;51310;52.198;5.422;2024-01-10T01:10:44;103009.38;;;-5.69;69.59
64844;BME280;51310;52.198;5.422;2024-01-10T01:13:11;103034.72;;;-5.65;70.06
64844;BME280;51310;52.198;5.422;2024-01-10T01:15:36;103030.50;;;-5.61;70.45
64844;BME280;51310;52.198;5.422;2024-01-10T01:18:02;103044.28;;;-5.63;70.75
64844;BME280;51310;52.198;5.422;2024-01-10T01:20:28;103036.66;;;-5.59;70.54
64844;BME280;51310;52.198;5.422;2024-01-10T01:22:54;103026.41;;;-5.77;70.77
64844;BME280;51310;52.198;5.422;2024-01-10T01:25:20;103037.41;;;-5.61;70.44
64844;BME280;51310;52.198;5.422;2024-01-10T01:27:46;103031.50;;;-5.80;71.02
64844;BME280;51310;52.198;5.422;2024-01-10T01:30:12;103015.69;;;-5.84;71.35
64844;BME280;51310;52.198;5.422;2024-01-10T01:32:38;103014.06;;;-5.81;71.36
64844;BME280;51310;52.198;5.422;2024-01-10T01:35:05;103035.41;;;-5.69;71.29
64844;BME280;51310;52.198;5.422;2024-01-10T01:37:31;103032.81;;;-5.69;71.76
64844;BME280;51310;52.198;5.422;2024-01-10T01:39:56;103039.50;;;-5.75;71.61
64844;BME280;51310;52.198;5.422;2024-01-10T01:42:22;103023.44;;;-5.63;71.65
64844;BME280;51310;52.198;5.422;2024-01-10T01:44:49;102998.69;;;-5.75;71.80
64844;BME280;51310;52.198;5.422;2024-01-10T01:47:15;103022.28;;;-5.72;71.72
64844;BME280;51310;52.198;5.422;2024-01-10T01:49:42;103017.28;;;-5.88;72.25
64844;BME280;51310;52.198;5.422;2024-01-10T01:52:10;103003.19;;;-5.93;72.53
64844;BME280;51310;52.198;5.422;2024-01-10T01:54:36;103003.19;;;-5.93;72.76
64844;BME280;51310;52.198;5.422;2024-01-10T01:57:03;103015.97;;;-5.77;72.87
64844;BME280;51310;52.198;5.422;2024-01-10T01:59:29;102990.53;;;-5.84;72.78
64844;BME280;51310;52.198;5.422;2024-01-10T02:01:55;103011.63;;;-5.78;72.91
64844;BME280;51310;52.198;5.422;2024-01-10T02:04:23;103017.41;;;-5.85;73.20
64844;BME280;51310;52.198;5.422;2024-01-10T02:06:50;103020.50;;;-5.95;73.20
64844;BME280;51310;52.198;5.422;2024-01-10T02:09:17;103014.22;;;-5.78;73.35
64844;BME280;51310;52.198;5.422;2024-01-10T02:11:43;102989.25;;;-5.95;73.70
64844;BME280;51310;52.198;5.422;2024-01-10T02:14:10;102995.13;;;-6.01;73.53
64844;BME280;51310;52.198;5.422;2024-01-10T02:16:36;103007.88;;;-5.84;73.32
64844;BME280;51310;52.198;5.422;2024-01-10T02:19:18;103003.16;;;-5.95;73.69
64844;BME280;51310;52.198;5.422;2024-01-10T02:21:45;103004.25;;;-5.88;73.78
64844;BME280;51310;52.198;5.422;2024-01-10T02:24:12;102989.25;;;-5.95;73.70
64844;BME280;51310;52.198;5.422;2024-01-10T02:26:39;102992.69;;;-5.96;73.98
64844;BME280;51310;52.198;5.422;2024-01-10T02:29:05;102975.88;;;-6.04;74.13
64844;BME280;51310;52.198;5.422;2024-01-10T02:31:31;102988.69;;;-5.87;73.78
64844;BME280;51310;52.198;5.422;2024-01-10T02:33:57;102984.75;;;-5.99;73.87
64844;BME280;51310;52.198;5.422;2024-01-10T02:36:23;102969.47;;;-6.13;73.92
64844;BME280;51310;52.198;5.422;2024-01-10T02:38:48;102992.16;;;-6.10;73.99
64844;BME280;51310;52.198;5.422;2024-01-10T02:41:15;102987.25;;;-6.02;74.13
64844;BME280;51310;52.198;5.422;2024-01-10T02:43:41;102978.19;;;-6.12;74.39
64844;BME280;51310;52.198;5.422;2024-01-10T02:46:07;102989.72;;;-6.05;74.21
64844;BME280;51310;52.198;5.422;2024-01-10T02:48:33;102983.91;;;-6.21;74.44
64844;BME280;51310;52.198;5.422;2024-01-10T02:50:59;102979.13;;;-6.10;74.30
64844;BME280;51310;52.198;5.422;2024-01-10T02:53:25;102952.34;;;-6.08;74.09
64844;BME280;51310;52.198;5.422;2024-01-10T02:55:51;102963.09;;;-6.21;74.31
64844;BME280;51310;52.198;5.422;2024-01-10T02:58:17;102973.88;;;-6.12;74.42
64844;BME280;51310;52.198;5.422;2024-01-10T03:00:42;102949.72;;;-6.30;74.56
64844;BME280;51310;52.198;5.422;2024-01-10T03:03:08;102965.09;;;-6.14;74.41
64844;BME280;51310;52.198;5.422;2024-01-10T03:05:34;102953.63;;;-6.19;74.14
64844;BME280;51310;52.198;5.422;2024-01-10T03:08:00;102967.34;;;-6.23;74.29
64844;BME280;51310;52.198;5.422;2024-01-10T03:10:27;102959.63;;;-6.20;74.43
64844;BME280;51310;52.198;5.422;2024-01-10T03:12:54;102970.81;;;-6.22;74.49
64844;BME280;51310;52.198;5.422;2024-01-10T03:15:20;102959.47;;;-6.24;74.58
64844;BME280;51310;52.198;5.422;2024-01-10T03:17:46;102935.34;;;-6.20;74.32
64844;BME280;51310;52.198;5.422;2024-01-10T03:20:12;102956.53;;;-6.11;74.05
64844;BME280;51310;52.198;5.422;2024-01-10T03:22:38;102951.06;;;-6.17;73.91
64844;BME280;51310;52.198;5.422;2024-01-10T03:25:04;102962.25;;;-6.20;74.00
64844;BME280;51310;52.198;5.422;2024-01-10T03:27:30;102943.84;;;-6.24;73.89
64844;BME280;51310;52.198;5.422;2024-01-10T03:29:56;102944.19;;;-6.15;73.48
64844;BME280;51310;52.198;5.422;2024-01-10T03:32:22;102931.69;;;-6.25;73.31
64844;BME280;51310;52.198;5.422;2024-01-10T03:34:48;102937.88;;;-6.22;73.00
64844;BME280;51310;52.198;5.422;2024-01-10T03:37:16;102949.91;;;-6.03;72.78
64844;BME280;51310;52.198;5.422;2024-01-10T03:39:42;102944.97;;;-6.18;72.90
64844;BME280;51310;52.198;5.422;2024-01-10T03:42:08;102948.88;;;-6.07;73.00
64844;BME280;51310;52.198;5.422;2024-01-10T03:44:34;102938.28;;;-6.11;72.67
64844;BME280;51310;52.198;5.422;2024-01-10T03:47:00;102945.59;;;-6.02;72.17
64844;BME280;51310;52.198;5.422;2024-01-10T03:49:26;102945.59;;;-6.02;72.34
64844;BME280;51310;52.198;5.422;2024-01-10T03:51:52;102961.78;;;-6.10;72.17
64844;BME280;51310;52.198;5.422;2024-01-10T03:54:18;102938.13;;;-6.16;72.21
64844;BME280;51310;52.198;5.422;2024-01-10T03:56:44;102943.31;;;-6.16;72.10
64844;BME280;51310;52.198;5.422;2024-01-10T03:59:09;102932.56;;;-6.25;72.30
64844;BME280;51310;52.198;5.422;2024-01-10T04:01:35;102944.19;;;-5.94;71.52
64844;BME280;51310;52.198;5.422;2024-01-10T04:04:05;102922.59;;;-6.13;71.26
64844;BME280;51310;52.198;5.422;2024-01-10T04:06:30;102936.94;;;-6.01;71.19
64844;BME280;51310;52.198;5.422;2024-01-10T04:08:56;102935.06;;;-6.05;71.57
64844;BME280;51310;52.198;5.422;2024-01-10T04:11:22;102940.13;;;-6.09;71.49
64844;BME280;51310;52.198;5.422;2024-01-10T04:13:48;102933.59;;;-5.99;71.38
64844;BME280;51310;52.198;5.422;2024-01-10T04:16:14;102920.50;;;-6.23;71.50
64844;BME280;51310;52.198;5.422;2024-01-10T04:18:40;102928.91;;;-6.08;71.64
64844;BME280;51310;52.198;5.422;2024-01-10T04:21:06;102931.63;;;-6.04;71.37
64844;BME280;51310;52.198;5.422;2024-01-10T04:23:32;102922.31;;;-6.20;71.52
64844;BME280;51310;52.198;5.422;2024-01-10T04:26:01;102904.50;;;-6.32;72.01
64844;BME280;51310;52.198;5.422;2024-01-10T04:28:28;102942.25;;;-6.21;71.83
64844;BME280;51310;52.198;5.422;2024-01-10T04:30:54;102943.69;;;-6.07;71.80
64844;BME280;51310;52.198;5.422;2024-01-10T04:33:20;102929.84;;;-6.05;71.11
64844;BME280;51310;52.198;5.422;2024-01-10T04:35:46;102935.06;;;-6.05;71.23
64844;BME280;51310;52.198;5.422;2024-01-10T04:38:12;102927.72;;;-6.16;71.23
64844;BME280;51310;52.198;5.422;2024-01-10T04:40:38;102932.13;;;-6.13;71.12
64844;BME280;51310;52.198;5.422;2024-01-10T04:43:04;102937.59;;;-6.07;70.83
64844;BME280;51310;52.198;5.422;2024-01-10T04:45:30;102924.41;;;-6.12;70.53
64844;BME280;51310;52.198;5.422;2024-01-10T04:47:56;102918.59;;;-6.04;70.52
64844;BME280;51310;52.198;5.422;2024-01-10T04:50:22;102926.22;;;-6.09;70.71
64844;BME280;51310;52.198;5.422;2024-01-10T04:52:48;102920.44;;;-6.02;70.73
64844;BME280;51310;52.198;5.422;2024-01-10T04:55:14;102901.78;;;-6.13;70.35
64844;BME280;51310;52.198;5.422;2024-01-10T04:57:40;102917.38;;;-6.14;70.53
64844;BME280;51310;52.198;5.422;2024-01-10T05:00:06;102918.53;;;-6.06;70.29
64844;BME280;51310;52.198;5.422;2024-01-10T05:02:32;102915.53;;;-6.17;70.48
64844;BME280;51310;52.198;5.422;2024-01-10T05:04:58;102898.00;;;-6.21;70.78
64844;BME280;51310;52.198;5.422;2024-01-10T05:07:24;102913.63;;;-6.21;71.04
64844;BME280;51310;52.198;5.422;2024-01-10T05:09:50;102893.97;;;-6.35;71.20
64844;BME280;51310;52.198;5.422;2024-01-10T05:12:16;102890.91;;;-6.25;71.18
64844;BME280;51310;52.198;5.422;2024-01-10T05:14:42;102914.06;;;-6.10;71.18
64844;BME280;51310;52.198;5.422;2024-01-10T05:17:08;102909.94;;;-6.26;71.38
64844;BME280;51310;52.198;5.422;2024-01-10T05:19:34;102895.44;;;-6.19;71.42
64844;BME280;51310;52.198;5.422;2024-01-10T05:22:00;102903.22;;;-6.21;71.83
64844;BME280;51310;52.198;5.422;2024-01-10T05:24:26;102910.13;;;-6.21;71.68
64844;BME280;51310;52.198;5.422;2024-01-10T05:26:52;102904.53;;;-6.10;71.32
64844;BME280;51310;52.198;5.422;2024-01-10T05:29:18;102877.41;;;-6.37;71.47
64844;BME280;51310;52.198;5.422;2024-01-10T05:31:45;102903.44;;;-6.15;71.39
64844;BME280;51310;52.198;5.422;2024-01-10T05:34:12;102905.94;;;-6.18;71.78
64844;BME280;51310;52.198;5.422;2024-01-10T05:36:38;102904.00;;;-6.23;71.57
64844;BME280;51310;52.198;5.422;2024-01-10T05:39:04;102896.81;;;-6.29;71.62
64844;BME280;51310;52.198;5.422;2024-01-10T05:41:30;102905.13;;;-6.17;71.32
64844;BME280;51310;52.198;5.422;2024-01-10T05:43:56;102881.13;;;-6.31;71.26
64844;BME280;51310;52.198;5.422;2024-01-10T05:46:22;102898.00;;;-6.43;71.37
64844;BME280;51310;52.198;5.422;2024-01-10T05:48:47;102899.84;;;-6.18;71.06
64844;BME280;51310;52.198;5.422;2024-01-10T05:51:14;102907.94;;;-6.11;70.67
64844;BME280;51310;52.198;5.422;2024-01-10T05:53:40;102882.94;;;-6.30;70.71
64844;BME280;51310;52.198;5.422;2024-01-10T05:56:06;102878.44;;;-6.34;70.80
64844;BME280;51310;52.198;5.422;2024-01-10T05:58:32;102901.44;;;-6.22;70.72
64844;BME280;51310;52.198;5.422;2024-01-10T06:00:58;102891.16;;;-6.19;70.34
64844;BME280;51310;52.198;5.422;2024-01-10T06:03:24;102886.91;;;-6.17;70.24
64844;BME280;51310;52.198;5.422;2024-01-10T06:05:51;102874.16;;;-6.32;70.41
64844;BME280;51310;52.198;5.422;2024-01-10T06:08:16;102888.66;;;-6.16;70.38
64844;BME280;51310;52.198;5.422;2024-01-10T06:10:42;102877.31;;;-6.18;70.62
64844;BME280;51310;52.198;5.422;2024-01-10T06:13:08;102848.78;;;-6.37;70.69
64844;BME280;51310;52.198;5.422;2024-01-10T06:15:34;102872.38;;;-6.33;70.77
64844;BME280;51310;52.198;5.422;2024-01-10T06:18:00;102866.53;;;-6.50;71.22
64844;BME280;51310;52.198;5.422;2024-01-10T06:20:26;102818.16;;;-6.67;71.03
64844;BME280;51310;52.198;5.422;2024-01-10T06:22:52;102856.47;;;-6.40;69.99
64844;BME280;51310;52.198;5.422;2024-01-10T06:25:18;102871.16;;;-6.20;69.97
64844;BME280;51310;52.198;5.422;2024-01-10T06:27:44;102876.44;;;-6.18;69.55
64844;BME280;51310;52.198;5.422;2024-01-10T06:30:10;102863.06;;;-6.28;69.12
64844;BME280;51310;52.198;5.422;2024-01-10T06:32:36;102877.66;;;-6.09;68.67
64844;BME280;51310;52.198;5.422;2024-01-10T06:35:02;102891.72;;;-6.03;68.50
64844;BME280;51310;52.198;5.422;2024-01-10T06:37:30;102885.19;;;-6.16;68.48
64844;BME280;51310;52.198;5.422;2024-01-10T06:39:56;102892.66;;;-6.24;68.68
64844;BME280;51310;52.198;5.422;2024-01-10T06:42:22;102895.88;;;-6.09;68.56
64844;BME280;51310;52.198;5.422;2024-01-10T06:44:48;102890.06;;;-6.01;68.69
64844;BME280;51310;52.198;5.422;2024-01-10T06:47:13;102888.78;;;-6.13;68.20
64844;BME280;51310;52.198;5.422;2024-01-10T06:49:40;102887.34;;;-6.27;68.68
64844;BME280;51310;52.198;5.422;2024-01-10T06:52:06;102888.13;;;-6.30;68.93
64844;BME280;51310;52.198;5.422;2024-01-10T06:54:33;102882.97;;;-6.51;69.02
64844;BME280;51310;52.198;5.422;2024-01-10T06:56:59;102888.53;;;-6.41;69.53
64844;BME280;51310;52.198;5.422;2024-01-10T06:59:25;102894.25;;;-6.50;69.51
64844;BME280;51310;52.198;5.422;2024-01-10T07:01:53;102892.34;;;-6.54;69.90
64844;BME280;51310;52.198;5.422;2024-01-10T07:04:19;102897.06;;;-6.45;70.21
64844;BME280;51310;52.198;5.422;2024-01-10T07:06:47;102884.88;;;-6.67;70.47
64844;BME280;51310;52.198;5.422;2024-01-10T07:09:13;102884.69;;;-6.72;70.75
64844;BME280;51310;52.198;5.422;2024-01-10T07:11:46;102898.53;;;-6.73;71.15
64844;BME280;51310;52.198;5.422;2024-01-10T07:14:14;102890.47;;;-6.79;71.65
64844;BME280;51310;52.198;5.422;2024-01-10T07:16:41;102885.00;;;-6.85;71.44
64844;BME280;51310;52.198;5.422;2024-01-10T07:19:12;102877.91;;;-6.89;71.45
64844;BME280;51310;52.198;5.422;2024-01-10T07:21:41;102913.13;;;-6.98;72.02
64844;BME280;51310;52.198;5.422;2024-01-10T07:24:08;102900.53;;;-7.08;72.40
64844;BME280;51310;52.198;5.422;2024-01-10T07:26:36;102907.34;;;-6.91;72.73
64844;BME280;51310;52.198;5.422;2024-01-10T07:29:02;102898.97;;;-7.04;73.02
64844;BME280;51310;52.198;5.422;2024-01-10T07:31:29;102908.88;;;-6.96;73.07
64844;BME280;51310;52.198;5.422;2024-01-10T07:33:58;102928.75;;;-6.96;72.98
64844;BME280;51310;52.198;5.422;2024-01-10T07:36:24;102925.00;;;-7.03;73.48
64844;BME280;51310;52.198;5.422;2024-01-10T07:38:56;102934.72;;;-6.99;73.35
64844;BME280;51310;52.198;5.422;2024-01-10T07:41:24;102921.53;;;-7.03;73.85
64844;BME280;51310;52.198;5.422;2024-01-10T07:43:50;102930.41;;;-6.98;73.46
64844;BME280;51310;52.198;5.422;2024-01-10T07:46:16;102926.03;;;-6.99;73.12
64844;BME280;51310;52.198;5.422;2024-01-10T07:48:43;102917.09;;;-7.06;73.23
64844;BME280;51310;52.198;5.422;2024-01-10T07:51:09;102917.66;;;-7.13;73.31
64844;BME280;51310;52.198;5.422;2024-01-10T07:53:35;102896.91;;;-7.12;73.08
64844;BME280;51310;52.198;5.422;2024-01-10T07:56:01;102903.78;;;-7.14;72.85
64844;BME280;51310;52.198;5.422;2024-01-10T07:58:27;102921.31;;;-7.08;72.86
64844;BME280;51310;52.198;5.422;2024-01-10T08:00:53;102915.28;;;-7.07;72.86
64844;BME280;51310;52.198;5.422;2024-01-10T08:03:19;102900.16;;;-7.17;72.76
64844;BME280;51310;52.198;5.422;2024-01-10T08:05:45;102919.75;;;-7.04;72.74
64844;BME280;51310;52.198;5.422;2024-01-10T08:08:12;102930.06;;;-6.86;72.80
64844;BME280;51310;52.198;5.422;2024-01-10T08:10:39;102918.53;;;-6.92;73.04
64844;BME280;51310;52.198;5.422;2024-01-10T08:13:05;102924.88;;;-7.06;72.99
64844;BME280;51310;52.198;5.422;2024-01-10T08:15:31;102927.97;;;-7.15;73.14
64844;BME280;51310;52.198;5.422;2024-01-10T08:18:00;102926.84;;;-7.00;73.34
64844;BME280;51310;52.198;5.422;2024-01-10T08:20:28;102898.69;;;-7.10;72.83
64844;BME280;51310;52.198;5.422;2024-01-10T08:22:54;102928.00;;;-6.94;72.45
64844;BME280;51310;52.198;5.422;2024-01-10T08:25:21;102907.06;;;-6.97;72.18
64844;BME280;51310;52.198;5.422;2024-01-10T08:27:47;102920.91;;;-6.77;71.87
64844;BME280;51310;52.198;5.422;2024-01-10T08:30:15;102927.75;;;-6.79;71.88
64844;BME280;51310;52.198;5.422;2024-01-10T08:32:41;102919.66;;;-6.86;72.32
64844;BME280;51310;52.198;5.422;2024-01-10T08:35:07;102914.38;;;-6.88;72.27
64844;BME280;51310;52.198;5.422;2024-01-10T08:37:36;102922.88;;;-6.71;71.92
64844;BME280;51310;52.198;5.422;2024-01-10T08:40:03;102919.88;;;-6.80;71.86
64844;BME280;51310;52.198;5.422;2024-01-10T08:42:35;102907.84;;;-6.57;71.60
64844;BME280;51310;52.198;5.422;2024-01-10T08:45:01;102902.41;;;-6.63;70.83
64844;BME280;51310;52.198;5.422;2024-01-10T08:47:27;102906.63;;;-6.44;70.59
64844;BME280;51310;52.198;5.422;2024-01-10T08:49:53;102912.91;;;-6.39;70.53
64844;BME280;51310;52.198;5.422;2024-01-10T08:52:19;102913.31;;;-6.29;69.59
64844;BME280;51310;52.198;5.422;2024-01-10T08:54:45;102903.59;;;-6.12;69.21
64844;BME280;51310;52.198;5.422;2024-01-10T08:57:10;102905.75;;;-6.22;68.85
64844;BME280;51310;52.198;5.422;2024-01-10T08:59:36;102910.69;;;-6.08;68.50
64844;BME280;51310;52.198;5.422;2024-01-10T09:02:02;102923.09;;;-6.00;68.06
64844;BME280;51310;52.198;5.422;2024-01-10T09:04:29;102911.22;;;-5.92;67.42
64844;BME280;51310;52.198;5.422;2024-01-10T09:06:54;102911.94;;;-5.74;66.45
64844;BME280;51310;52.198;5.422;2024-01-10T09:09:20;102901.72;;;-5.92;66.78
64844;BME280;51310;52.198;5.422;2024-01-10T09:11:47;102876.66;;;-5.88;66.32
64844;BME280;51310;52.198;5.422;2024-01-10T09:14:14;102893.31;;;-5.60;66.44
64844;BME280;51310;52.198;5.422;2024-01-10T09:16:40;102905.06;;;-5.48;64.98
64844;BME280;51310;52.198;5.422;2024-01-10T09:19:06;102901.63;;;-5.47;64.97
64844;BME280;51310;52.198;5.422;2024-01-10T09:21:32;102910.03;;;-5.30;64.42
64844;BME280;51310;52.198;5.422;2024-01-10T09:23:57;102909.25;;;-5.27;63.93
64844;BME280;51310;52.198;5.422;2024-01-10T09:26:23;102897.63;;;-5.11;63.37
64844;BME280;51310;52.198;5.422;2024-01-10T09:28:49;102902.00;;;-4.86;63.00
64844;BME280;51310;52.198;5.422;2024-01-10T09:31:15;102905.28;;;-4.92;62.28
64844;BME280;51310;52.198;5.422;2024-01-10T09:33:41;102900.78;;;-4.96;61.80
64844;BME280;51310;52.198;5.422;2024-01-10T09:36:07;102920.16;;;-4.64;61.58
64844;BME280;51310;52.198;5.422;2024-01-10T09:38:36;102897.19;;;-4.74;60.82
64844;BME280;51310;52.198;5.422;2024-01-10T09:41:03;102917.41;;;-4.41;59.23
64844;BME280;51310;52.198;5.422;2024-01-10T09:43:31;102905.44;;;-4.33;58.82
64844;BME280;51310;52.198;5.422;2024-01-10T09:46:00;102902.03;;;-4.32;58.59
64844;BME280;51310;52.198;5.422;2024-01-10T09:48:29;102887.19;;;-4.33;58.02
64844;BME280;51310;52.198;5.422;2024-01-10T09:50:56;102907.16;;;-4.06;57.99
64844;BME280;51310;52.198;5.422;2024-01-10T09:53:24;102907.94;;;-4.09;57.59
64844;BME280;51310;52.198;5.422;2024-01-10T09:55:55;102913.78;;;-3.89;56.37
64844;BME280;51310;52.198;5.422;2024-01-10T09:58:27;102889.34;;;-3.91;55.81
64844;BME280;51310;52.198;5.422;2024-01-10T10:00:52;102907.84;;;-3.83;56.06
64844;BME280;51310;52.198;5.422;2024-01-10T10:03:19;102904.72;;;-3.71;55.16
64844;BME280;51310;52.198;5.422;2024-01-10T10:05:45;102911.63;;;-3.73;55.67
64844;BME280;51310;52.198;5.422;2024-01-10T10:08:14;102898.09;;;-3.59;55.05
64844;BME280;51310;52.198;5.422;2024-01-10T10:10:41;102878.44;;;-3.76;54.70
64844;BME280;51310;52.198;5.422;2024-01-10T10:13:11;102903.59;;;-3.49;53.64
64844;BME280;51310;52.198;5.422;2024-01-10T10:16:03;102891.19;;;-3.57;53.18
64844;BME280;51310;52.198;5.422;2024-01-10T10:18:30;102910.22;;;-3.30;53.04
64844;BME280;51310;52.198;5.422;2024-01-10T10:21:12;102921.81;;;-3.21;53.17
64844;BME280;51310;52.198;5.422;2024-01-10T10:23:41;102913.22;;;-3.17;52.64
64844;BME280;51310;52.198;5.422;2024-01-10T10:26:16;102917.72;;;-3.11;52.29
64844;BME280;51310;52.198;5.422;2024-01-10T10:28:47;102902.22;;;-3.03;52.05
64844;BME280;51310;52.198;5.422;2024-01-10T10:31:15;102910.97;;;-3.03;51.76
64844;BME280;51310;52.198;5.422;2024-01-10T10:33:43;102916.25;;;-3.00;51.79
64844;BME280;51310;52.198;5.422;2024-01-10T10:36:14;102880.38;;;-3.05;51.82
64844;BME280;51310;52.198;5.422;2024-01-10T10:38:40;102897.41;;;-2.88;51.18
64844;BME280;51310;52.198;5.422;2024-01-10T10:41:07;102878.88;;;-2.96;50.84
64844;BME280;51310;52.198;5.422;2024-01-10T10:43:37;102869.38;;;-2.92;50.46
64844;BME280;51310;52.198;5.422;2024-01-10T10:46:07;102888.91;;;-2.78;50.28
64844;BME280;51310;52.198;5.422;2024-01-10T10:48:36;102886.63;;;-2.64;49.98
64844;BME280;51310;52.198;5.422;2024-01-10T10:51:15;102886.69;;;-2.62;50.29
64844;BME280;51310;52.198;5.422;2024-01-10T10:53:44;102885.97;;;-2.55;49.39
64844;BME280;51310;52.198;5.422;2024-01-10T10:56:13;102869.28;;;-2.60;49.76
64844;BME280;51310;52.198;5.422;2024-01-10T10:58:42;102880.03;;;-2.48;49.83
64844;BME280;51310;52.198;5.422;2024-01-10T11:01:13;102870.63;;;-2.40;49.18
64844;BME280;51310;52.198;5.422;2024-01-10T11:03:41;102867.88;;;-2.46;48.78
64844;BME280;51310;52.198;5.422;2024-01-10T11:06:12;102883.94;;;-2.31;49.29
64844;BME280;51310;52.198;5.422;2024-01-10T11:09:04;102875.09;;;-2.36;49.61
64844;BME280;51310;52.198;5.422;2024-01-10T11:11:50;102864.53;;;-2.39;49.43
64844;BME280;51310;52.198;5.422;2024-01-10T11:14:51;102884.25;;;-2.18;49.36
64844;BME280;51310;52.198;5.422;2024-01-10T11:17:50;102884.28;;;-2.15;48.41
64844;BME280;51310;52.198;5.422;2024-01-10T11:23:44;102885.28;;;-2.10;49.02
64844;BME280;51310;52.198;5.422;2024-01-10T11:26:15;102882.66;;;-2.10;48.78
64844;BME280;51310;52.198;5.422;2024-01-10T11:28:42;102881.09;;;-2.02;48.98
64844;BME280;51310;52.198;5.422;2024-01-10T11:31:08;102863.81;;;-1.92;48.96
64844;BME280;51310;52.198;5.422;2024-01-10T11:33:44;102873.59;;;-1.85;49.26
64844;BME280;51310;52.198;5.422;2024-01-10T11:36:16;102880.75;;;-1.78;48.45
64844;BME280;51310;52.198;5.422;2024-01-10T11:41:36;102873.03;;;-1.70;47.24
64844;BME280;51310;52.198;5.422;2024-01-10T11:46:45;102872.38;;;-1.58;48.04
64844;BME280;51310;52.198;5.422;2024-01-10T11:49:17;102876.63;;;-1.65;48.02
64844;BME280;51310;52.198;5.422;2024-01-10T11:51:53;102870.47;;;-1.67;47.71
64844;BME280;51310;52.198;5.422;2024-01-10T11:54:37;102865.25;;;-1.65;47.61
64844;BME280;51310;52.198;5.422;2024-01-10T11:57:29;102869.75;;;-1.60;47.36
64844;BME280;51310;52.198;5.422;2024-01-10T11:59:58;102863.69;;;-1.57;47.55
64844;BME280;51310;52.198;5.422;2024-01-10T12:02:29;102838.28;;;-1.60;47.65
64844;BME280;51310;52.198;5.422;2024-01-10T12:04:55;102850.69;;;-1.50;47.96
64844;BME280;51310;52.198;5.422;2024-01-10T12:07:21;102839.31;;;-1.52;47.12
64844;BME280;51310;52.198;5.422;2024-01-10T12:09:49;102850.00;;;-1.41;47.60
64844;BME280;51310;52.198;5.422;2024-01-10T12:12:15;102828.00;;;-1.48;47.68
64844;BME280;51310;52.198;5.422;2024-01-10T12:14:42;102845.97;;;-1.23;47.13
64844;BME280;51310;52.198;5.422;2024-01-10T12:17:11;102844.16;;;-1.26;46.73
64844;BME280;51310;52.198;5.422;2024-01-10T12:19:37;102816.03;;;-1.35;47.22
64844;BME280;51310;52.198;5.422;2024-01-10T12:22:07;102834.53;;;-1.26;47.77
64844;BME280;51310;52.198;5.422;2024-01-10T12:24:33;102824.88;;;-1.27;46.78
64844;BME280;51310;52.198;5.422;2024-01-10T12:26:59;102822.25;;;-1.28;47.05
64844;BME280;51310;52.198;5.422;2024-01-10T12:29:26;102825.03;;;-1.19;46.73
64844;BME280;51310;52.198;5.422;2024-01-10T12:31:52;102835.63;;;-1.13;46.58
64844;BME280;51310;52.198;5.422;2024-01-10T12:34:20;102818.09;;;-1.17;46.76
64844;BME280;51310;52.198;5.422;2024-01-10T12:36:47;102824.22;;;-1.16;46.14
64844;BME280;51310;52.198;5.422;2024-01-10T12:39:13;102815.38;;;-1.20;46.51
64844;BME280;51310;52.198;5.422;2024-01-10T12:41:41;102813.75;;;-1.13;46.09
64844;BME280;51310;52.198;5.422;2024-01-10T12:44:07;102812.88;;;-1.14;46.54
64844;BME280;51310;52.198;5.422;2024-01-10T12:46:33;102817.44;;;-1.02;47.20
64844;BME280;51310;52.198;5.422;2024-01-10T12:49:04;102831.47;;;-1.00;46.60
64844;BME280;51310;52.198;5.422;2024-01-10T12:51:33;102821.06;;;-0.95;47.06
64844;BME280;51310;52.198;5.422;2024-01-10T12:54:03;102827.31;;;-0.87;46.16
64844;BME280;51310;52.198;5.422;2024-01-10T12:56:30;102822.91;;;-0.90;45.66
64844;BME280;51310;52.198;5.422;2024-01-10T12:58:56;102818.50;;;-0.91;45.50